Terminal Aerodrome Forecast
Issued by NWS

Home | Current Version | Previous Version | Graphics & Text | Print | Product List | Glossary On
Versions: 1 2 3 4 5 6 7 8 9 10 11 12 13 14 15 16 17 18 19 20 21 22 23 24 25 26 27 28 29 30 31
000
FTUS43 KLOT 050304 AAB
TAFORD
TAF AMD
KORD 050304Z 0503/0606 24005KT 5SM BR OVC005
     FM050500 26008KT 3SM BR OVC004
     FM050900 23005KT 1SM BR OVC004
      TEMPO 0509/0513 1/2SM FZFG VV003
     FM051600 20006KT 2SM BR OVC005
     FM051900 19009KT 6SM BR OVC012
     FM060200 15006KT P6SM OVC020=

USA.gov is the U.S. government's official web portal to all federal, state and local government web resources and services.